createdAt,value
2018-11-28T00:00:19.519Z,27.50
2018-11-28T00:01:19.511Z,26.80
2018-11-28T00:02:19.498Z,27.60
2018-11-28T00:03:19.591Z,26.80
2018-11-28T00:04:19.478Z,23.50
2018-11-28T00:05:19.590Z,28.50
2018-11-28T00:06:19.455Z,24.80
2018-11-28T00:07:19.452Z,26.10
2018-11-28T00:08:19.437Z,23.70
2018-11-28T00:09:19.423Z,26.70
2018-11-28T00:10:19.428Z,26.90
2018-11-28T00:11:19.403Z,26.20
2018-11-28T00:12:19.408Z,27.50
2018-11-28T00:13:19.383Z,27.90
2018-11-28T00:14:19.373Z,23.90
2018-11-28T00:15:19.386Z,28.60
2018-11-28T00:16:19.350Z,25.20
2018-11-28T00:17:19.340Z,28.70
2018-11-28T00:18:19.338Z,28.30
2018-11-28T00:19:19.319Z,29.40
2018-11-28T00:20:19.328Z,24.60
2018-11-28T00:21:19.300Z,24.60
2018-11-28T00:22:19.296Z,31.20
2018-11-28T00:23:19.289Z,27.90
2018-11-28T00:24:19.276Z,28.00
2018-11-28T00:25:19.589Z,29.10
2018-11-28T00:26:19.253Z,25.20
2018-11-28T00:27:19.237Z,27.30
2018-11-28T00:28:19.228Z,25.10
2018-11-28T00:29:19.219Z,24.90
2018-11-28T00:30:19.591Z,27.10
2018-11-28T00:31:19.238Z,27.30
2018-11-28T00:32:19.190Z,25.10
2018-11-28T00:33:19.177Z,26.70
2018-11-28T00:34:19.163Z,27.90
2018-11-28T00:35:19.182Z,28.10
2018-11-28T00:36:19.142Z,25.00
2018-11-28T00:37:19.133Z,25.00
2018-11-28T00:38:19.134Z,25.90
2018-11-28T00:39:19.117Z,26.30
2018-11-28T00:40:19.101Z,25.90
2018-11-28T00:41:19.117Z,25.10
2018-11-28T00:42:19.080Z,25.50
2018-11-28T00:43:19.073Z,24.40
2018-11-28T00:44:19.073Z,29.60
2018-11-28T00:45:19.051Z,25.40
2018-11-28T00:46:19.040Z,26.40
2018-11-28T00:47:19.049Z,25.40
2018-11-28T00:48:19.020Z,26.20
2018-11-28T00:49:19.008Z,27.00
2018-11-28T00:50:19.014Z,27.30
2018-11-28T00:51:19.000Z,29.00
2018-11-28T00:52:19.199Z,29.20
2018-11-28T00:53:18.967Z,26.10
2018-11-28T00:54:18.962Z,25.30
2018-11-28T00:55:18.944Z,26.80
2018-11-28T00:56:18.951Z,24.00
2018-11-28T00:57:18.924Z,28.80
2018-11-28T00:58:18.919Z,27.30
2018-11-28T00:59:18.910Z,30.10
2018-11-28T01:00:18.899Z,30.30
2018-11-28T01:01:18.889Z,24.20
2018-11-28T01:02:19.092Z,23.40
2018-11-28T01:03:18.863Z,25.70
2018-11-28T01:04:18.868Z,25.10
2018-11-28T01:05:18.841Z,28.90
2018-11-28T01:06:18.832Z,27.80
2018-11-28T01:07:18.825Z,31.40
2018-11-28T01:08:19.097Z,26.80
2018-11-28T01:09:18.799Z,26.00
2018-11-28T01:10:18.789Z,23.10
2018-11-28T01:11:19.090Z,26.90
2018-11-28T01:12:18.771Z,25.50
2018-11-28T01:13:18.764Z,30.60
2018-11-28T01:14:18.749Z,28.30
2018-11-28T01:15:18.744Z,25.10
2018-11-28T01:16:19.090Z,28.50
2018-11-28T01:17:18.717Z,28.20
2018-11-28T01:18:18.714Z,26.80
2018-11-28T01:19:18.698Z,28.10
2018-11-28T01:20:18.693Z,30.30
2018-11-28T01:21:19.085Z,25.20
2018-11-28T01:22:18.668Z,29.70
2018-11-28T01:23:18.662Z,26.40
2018-11-28T01:24:18.645Z,27.50
2018-11-28T01:25:18.634Z,28.20
2018-11-28T01:26:18.645Z,24.40
2018-11-28T01:27:18.620Z,25.50
2018-11-28T01:28:18.601Z,25.90
2018-11-28T01:29:18.595Z,29.70
2018-11-28T01:30:18.583Z,32.90
2018-11-28T01:31:18.603Z,26.60
2018-11-28T01:32:18.560Z,28.20
2018-11-28T01:33:18.548Z,26.50
2018-11-28T01:34:18.537Z,30.70
2018-11-28T01:35:18.527Z,29.00
2018-11-28T01:36:18.598Z,28.20
2018-11-28T01:37:18.585Z,27.50
2018-11-28T01:38:18.504Z,28.80
2018-11-28T01:39:18.487Z,24.80
2018-11-28T01:40:18.478Z,26.10
2018-11-28T01:41:18.466Z,27.40
2018-11-28T01:42:18.466Z,25.70
2018-11-28T01:43:18.583Z,27.60
2018-11-28T01:44:18.435Z,26.10
2018-11-28T01:45:18.437Z,24.00
2018-11-28T01:46:18.417Z,24.00
2018-11-28T01:47:18.403Z,30.30
2018-11-28T01:48:18.398Z,26.10
2018-11-28T01:49:18.586Z,27.90
2018-11-28T01:50:18.371Z,28.00
2018-11-28T01:51:18.362Z,28.60
2018-11-28T01:52:18.350Z,26.50
2018-11-28T01:53:18.343Z,29.20
2018-11-28T01:54:18.331Z,29.90
2018-11-28T01:55:18.907Z,30.10
2018-11-28T01:56:18.309Z,28.40
2018-11-28T01:57:18.301Z,28.00
2018-11-28T01:58:18.289Z,27.50
2018-11-28T01:59:18.277Z,21.60
2018-11-28T02:00:18.272Z,27.30
2018-11-28T02:01:18.276Z,26.90
2018-11-28T02:02:18.245Z,27.10
2018-11-28T02:03:18.235Z,27.20
2018-11-28T02:04:18.226Z,31.40
2018-11-28T02:05:18.212Z,24.70
2018-11-28T02:06:18.202Z,28.70
2018-11-28T02:07:18.212Z,28.20
2018-11-28T02:08:18.183Z,30.50
2018-11-28T02:09:18.171Z,27.90
2018-11-28T02:10:18.165Z,28.70
2018-11-28T02:11:18.581Z,32.60
2018-11-28T02:12:18.142Z,29.40
2018-11-28T02:13:18.130Z,29.00
2018-11-28T02:14:18.125Z,28.80
2018-11-28T02:15:18.112Z,27.40
2018-11-28T02:16:18.876Z,28.70
2018-11-28T02:17:18.089Z,28.10
2018-11-28T02:18:18.081Z,28.10
2018-11-28T02:19:18.077Z,27.50
2018-11-28T02:20:18.060Z,28.60
2018-11-28T02:21:18.085Z,28.90
2018-11-28T02:22:18.042Z,28.60
2018-11-28T02:23:18.027Z,32.50
2018-11-28T02:24:18.015Z,30.70
2018-11-28T02:25:18.019Z,31.50
2018-11-28T04:39:25.368Z,23.30
2018-11-28T04:40:23.227Z,30.70
2018-11-28T04:41:23.212Z,32.10
2018-11-28T04:42:23.226Z,30.60
2018-11-28T04:43:23.197Z,34.70
2018-11-28T04:44:23.225Z,25.70
2018-11-28T04:45:23.184Z,30.00
2018-11-28T04:46:23.177Z,31.20
2018-11-28T04:47:23.248Z,35.10
2018-11-28T04:48:23.142Z,32.40
2018-11-28T04:49:23.132Z,30.40
2018-11-28T04:50:23.146Z,36.10
2018-11-28T04:51:23.115Z,28.40
2018-11-28T04:52:23.099Z,30.80
2018-11-28T04:53:23.101Z,31.90
2018-11-28T04:54:23.079Z,30.90
2018-11-28T04:55:23.391Z,31.60
2018-11-28T04:56:23.064Z,29.00
2018-11-28T04:57:23.046Z,32.20
2018-11-28T04:58:23.038Z,33.80
2018-11-28T04:59:23.053Z,34.10
2018-11-28T05:00:23.030Z,32.40
2018-11-28T05:01:23.221Z,29.00
2018-11-28T05:02:23.055Z,27.50
2018-11-28T05:03:22.982Z,30.10
2018-11-28T05:04:23.005Z,31.10
2018-11-28T05:05:23.500Z,30.90
2018-11-28T05:06:22.984Z,32.10
2018-11-28T05:07:22.987Z,31.90
2018-11-28T05:08:22.944Z,28.20
2018-11-28T05:09:22.943Z,32.90
2018-11-28T05:10:22.924Z,30.70
2018-11-28T05:11:22.927Z,26.80
2018-11-28T05:12:22.889Z,29.80
2018-11-28T05:13:22.879Z,33.40
2018-11-28T05:14:22.881Z,28.20
2018-11-28T05:15:22.871Z,32.50
2018-11-28T05:16:22.846Z,32.00
2018-11-28T05:17:22.839Z,28.70
2018-11-28T05:18:22.826Z,33.20
2018-11-28T05:19:22.814Z,35.80
2018-11-28T05:20:22.847Z,28.40
2018-11-28T05:21:22.797Z,29.40
2018-11-28T05:22:22.784Z,29.70
2018-11-28T05:23:22.776Z,28.00
2018-11-28T05:24:22.769Z,28.60
2018-11-28T05:25:22.854Z,31.50
2018-11-28T05:26:22.743Z,27.80
2018-11-28T05:27:22.734Z,27.60
2018-11-28T05:28:22.725Z,28.60
2018-11-28T05:29:22.711Z,25.20
2018-11-28T05:30:22.855Z,31.10
2018-11-28T05:31:22.692Z,31.00
2018-11-28T05:32:22.683Z,29.10
2018-11-28T05:33:22.668Z,26.20
2018-11-28T05:34:22.658Z,27.20
2018-11-28T05:35:22.661Z,30.40
2018-11-28T05:36:22.639Z,30.00
2018-11-28T05:37:22.626Z,34.00
2018-11-28T05:38:22.617Z,32.20
2018-11-28T05:39:22.612Z,28.30
2018-11-28T05:40:22.616Z,29.80
2018-11-28T05:41:22.597Z,31.50
2018-11-28T05:42:22.589Z,26.20
2018-11-28T05:43:22.666Z,26.80
2018-11-28T05:44:22.597Z,31.20
2018-11-28T05:45:22.596Z,27.30
2018-11-28T05:46:22.561Z,31.40
2018-11-28T05:47:22.597Z,29.30
2018-11-28T05:48:22.529Z,25.20
2018-11-28T05:49:22.571Z,29.40
2018-11-28T05:50:22.509Z,31.20
2018-11-28T05:51:22.482Z,29.50
2018-11-28T05:52:22.470Z,26.80
2018-11-28T05:53:22.463Z,29.50
2018-11-28T05:54:22.454Z,26.00
2018-11-28T05:55:22.857Z,28.20
2018-11-28T05:56:22.430Z,31.70
2018-11-28T05:57:22.422Z,29.10
2018-11-28T05:58:22.411Z,29.70
2018-11-28T05:59:27.341Z,26.40
2018-11-28T06:00:23.403Z,26.20
2018-11-28T06:01:22.377Z,25.40
2018-11-28T06:02:22.368Z,27.10
2018-11-28T06:03:22.359Z,28.70
2018-11-28T06:04:22.345Z,32.40
2018-11-28T06:05:22.391Z,28.60
2018-11-28T06:06:22.350Z,27.90
2018-11-28T06:07:22.336Z,29.10
2018-11-28T06:08:22.305Z,26.00
2018-11-28T06:09:22.293Z,26.90
2018-11-28T06:10:22.289Z,26.40
2018-11-28T06:11:22.350Z,31.20
2018-11-28T06:12:22.262Z,27.60
2018-11-28T06:13:22.254Z,24.40
2018-11-28T06:14:22.245Z,31.20
2018-11-28T06:15:22.233Z,25.10
2018-11-28T06:16:22.234Z,29.60
2018-11-28T06:17:22.214Z,30.00
2018-11-28T06:18:22.202Z,24.80
2018-11-28T06:19:22.196Z,28.20
2018-11-28T06:20:22.183Z,24.70
2018-11-28T06:21:22.218Z,25.80
2018-11-28T06:22:22.185Z,25.40
2018-11-28T06:23:22.155Z,27.20
2018-11-28T06:24:22.151Z,27.80
2018-11-28T06:25:22.195Z,24.80
2018-11-28T06:26:22.363Z,23.40
2018-11-28T06:27:22.222Z,25.10
2018-11-28T06:28:22.106Z,28.70
2018-11-28T06:29:22.145Z,26.30
2018-11-28T06:30:22.128Z,26.30
2018-11-28T06:31:22.414Z,26.10
2018-11-28T06:32:22.063Z,25.20
2018-11-28T06:33:22.119Z,22.60
2018-11-28T06:34:22.083Z,27.00
2018-11-28T06:35:22.069Z,23.70
2018-11-28T06:36:22.173Z,25.30
2018-11-28T06:37:22.067Z,27.80
2018-11-28T06:38:21.995Z,28.00
2018-11-28T06:39:21.982Z,23.90
2018-11-28T06:40:24.270Z,31.80
2018-11-28T06:41:21.976Z,26.70
2018-11-28T06:42:21.950Z,24.70
2018-11-28T06:43:21.954Z,27.30
2018-11-28T06:44:21.931Z,22.50
2018-11-28T06:45:21.920Z,23.70
2018-11-28T06:46:21.943Z,26.90
2018-11-28T06:47:21.899Z,26.60
2018-11-28T06:48:21.933Z,23.20
2018-11-28T06:49:21.889Z,27.80
2018-11-28T06:50:21.872Z,26.00
2018-11-28T06:51:21.872Z,24.20
2018-11-28T06:52:21.856Z,25.70
2018-11-28T06:53:21.837Z,27.30
2018-11-28T06:54:21.826Z,24.50
2018-11-28T06:55:21.830Z,25.20
2018-11-28T06:56:21.821Z,28.80
2018-11-28T06:57:21.794Z,27.40
2018-11-28T06:58:21.795Z,26.80
2018-11-28T06:59:21.774Z,26.80
2018-11-28T07:00:21.778Z,22.30
2018-11-28T07:01:21.778Z,27.70
2018-11-28T07:02:21.743Z,27.60
2018-11-28T07:03:21.731Z,24.30
2018-11-28T07:04:21.733Z,23.50
2018-11-28T07:05:21.723Z,26.00
2018-11-28T07:06:21.715Z,25.40
2018-11-28T07:07:21.695Z,26.90
2018-11-28T07:08:21.682Z,28.00
2018-11-28T07:09:21.670Z,23.90
2018-11-28T07:10:21.673Z,28.50
2018-11-28T07:11:21.845Z,22.80
2018-11-28T07:12:21.642Z,30.60
2018-11-28T07:13:21.641Z,27.10
2018-11-28T07:14:21.620Z,26.10
2018-11-28T07:15:21.610Z,26.10
2018-11-28T07:16:21.854Z,29.30
2018-11-28T07:17:21.587Z,26.70
2018-11-28T07:18:21.577Z,27.40
2018-11-28T07:19:21.575Z,29.80
2018-11-28T07:20:21.555Z,27.20
2018-11-28T07:21:21.841Z,27.70
2018-11-28T07:22:21.548Z,23.50
2018-11-28T07:23:21.527Z,30.50
2018-11-28T07:24:21.518Z,26.30
2018-11-28T07:25:21.517Z,27.90
2018-11-28T07:26:21.842Z,28.90
2018-11-28T07:27:21.485Z,26.50
2018-11-28T07:28:21.484Z,27.40
2018-11-28T07:29:21.461Z,26.10
2018-11-28T07:30:21.463Z,23.90
2018-11-28T07:31:21.662Z,27.80
2018-11-28T07:32:21.839Z,25.40
2018-11-28T07:33:21.420Z,25.10
2018-11-28T07:34:21.420Z,27.00
2018-11-28T07:35:21.401Z,21.50
2018-11-28T07:36:21.389Z,25.90
2018-11-28T07:37:21.855Z,25.80
2018-11-28T07:38:21.373Z,27.40
2018-11-28T07:39:21.355Z,25.40
2018-11-28T07:40:21.369Z,27.50
2018-11-28T07:41:21.335Z,25.40
2018-11-28T07:42:21.340Z,27.70
2018-11-28T07:43:21.335Z,27.70
2018-11-28T07:44:21.345Z,24.80
2018-11-28T07:45:21.301Z,28.70
2018-11-28T07:46:21.301Z,25.60
2018-11-28T07:47:21.284Z,26.50
2018-11-28T07:48:21.261Z,24.20
2018-11-28T07:49:21.258Z,24.30
2018-11-28T07:50:21.240Z,24.40
2018-11-28T07:51:21.230Z,23.70
2018-11-28T07:52:21.556Z,26.80
2018-11-28T07:53:21.214Z,25.20
2018-11-28T07:54:21.201Z,29.20
2018-11-28T07:55:21.195Z,32.80
2018-11-28T07:56:21.179Z,24.30
2018-11-28T07:57:21.187Z,27.20
2018-11-28T07:58:21.159Z,27.30
2018-11-28T07:59:21.148Z,29.10
2018-11-28T08:00:21.135Z,29.50
2018-11-28T08:01:21.129Z,27.80
2018-11-28T08:02:21.340Z,28.20
2018-11-28T08:03:21.105Z,28.90
2018-11-28T08:04:21.515Z,28.50
2018-11-28T08:05:21.084Z,24.20
2018-11-28T08:06:21.074Z,27.50
2018-11-28T08:07:21.338Z,30.20
2018-11-28T08:08:21.054Z,25.30
2018-11-28T08:09:21.040Z,27.70
2018-11-28T08:10:21.032Z,31.00
2018-11-28T08:11:21.019Z,27.10
2018-11-28T08:12:21.336Z,28.80
2018-11-28T08:13:21.052Z,28.20
2018-11-28T08:14:20.986Z,29.10
2018-11-28T08:15:20.978Z,28.40
2018-11-28T08:16:20.969Z,27.00
2018-11-28T08:17:21.337Z,25.00
2018-11-28T08:18:20.947Z,29.50
2018-11-28T08:19:24.042Z,28.00
2018-11-28T08:20:20.924Z,31.50
2018-11-28T08:21:20.914Z,26.50
2018-11-28T08:22:21.341Z,30.20
2018-11-28T08:23:20.893Z,23.00
2018-11-28T08:24:20.882Z,26.40
2018-11-28T08:25:20.871Z,29.00
2018-11-28T08:26:20.863Z,26.00
2018-11-28T08:27:21.335Z,25.70
2018-11-28T08:28:20.839Z,29.50
2018-11-28T08:29:20.833Z,27.80
2018-11-28T08:30:20.816Z,28.00
2018-11-28T08:31:20.804Z,30.60
2018-11-28T08:32:20.812Z,30.70
2018-11-28T08:33:20.788Z,28.80
2018-11-28T08:34:20.857Z,29.70
2018-11-28T08:35:20.767Z,27.60
2018-11-28T08:36:20.764Z,21.60
2018-11-28T08:37:20.756Z,28.30
2018-11-28T08:38:20.741Z,25.80
2018-11-28T08:39:20.720Z,27.80
2018-11-28T08:40:20.713Z,31.40
2018-11-28T08:41:20.712Z,27.80
2018-11-28T08:42:20.870Z,27.40
2018-11-28T08:43:20.683Z,29.30
2018-11-28T08:44:20.681Z,27.80
2018-11-28T08:45:20.942Z,26.60
2018-11-28T08:46:20.648Z,26.60
2018-11-28T08:47:20.844Z,29.50
2018-11-28T08:48:20.627Z,27.90
2018-11-28T08:49:20.619Z,26.60
2018-11-28T08:50:20.620Z,27.80
2018-11-28T08:51:20.597Z,27.00
2018-11-28T08:52:20.862Z,30.90
2018-11-28T08:53:20.589Z,24.20
2018-11-28T08:54:20.569Z,28.30
2018-11-28T08:55:20.554Z,30.20
2018-11-28T08:56:20.556Z,24.50
2018-11-28T08:57:20.533Z,28.40
2018-11-28T08:58:20.833Z,27.50
2018-11-28T08:59:20.527Z,26.80
2018-11-28T09:00:20.502Z,27.60
2018-11-28T09:01:20.492Z,27.70
2018-11-28T09:02:20.495Z,27.40
2018-11-28T09:03:20.832Z,23.70
2018-11-28T09:04:20.459Z,24.40
2018-11-28T09:05:20.460Z,28.40
2018-11-28T09:06:20.443Z,24.50
2018-11-28T09:07:20.429Z,23.70
2018-11-28T09:08:20.444Z,25.70
2018-11-28T09:09:20.406Z,27.40
2018-11-28T09:10:20.410Z,31.20
2018-11-28T09:11:20.399Z,26.50
2018-11-28T09:12:20.375Z,23.20
2018-11-28T09:13:20.381Z,27.50
2018-11-28T09:14:20.377Z,24.20
2018-11-28T09:15:20.344Z,25.50
2018-11-28T09:16:20.335Z,30.80
2018-11-28T09:17:20.540Z,23.20
2018-11-28T09:18:20.333Z,27.20
2018-11-28T09:19:20.301Z,26.90
2018-11-28T09:20:20.301Z,24.40
2018-11-28T09:21:20.280Z,22.10
2018-11-28T09:22:20.272Z,26.10
2018-11-28T09:23:20.348Z,28.40
2018-11-28T09:24:20.249Z,24.00
2018-11-28T09:25:20.240Z,23.20
2018-11-28T09:26:20.236Z,26.40
2018-11-28T09:27:20.218Z,26.90
2018-11-28T09:28:20.331Z,27.60
2018-11-28T09:29:20.211Z,24.60
2018-11-28T09:30:20.187Z,24.90
2018-11-28T09:31:20.174Z,24.30
2018-11-28T09:32:20.171Z,26.70
2018-11-28T09:33:20.332Z,25.30
2018-11-28T09:34:20.145Z,26.80
2018-11-28T09:35:20.152Z,27.10
2018-11-28T09:36:20.128Z,24.70
2018-11-28T09:37:20.112Z,26.40
2018-11-28T09:38:21.411Z,26.60
2018-11-28T09:39:20.088Z,24.70
2018-11-28T09:40:20.079Z,27.40
2018-11-28T09:41:20.081Z,25.90
2018-11-28T09:42:20.061Z,23.60
2018-11-28T09:43:20.329Z,26.80
2018-11-28T09:44:20.045Z,25.30
2018-11-28T09:45:20.025Z,26.10
2018-11-28T09:46:20.016Z,25.60
2018-11-28T09:47:20.013Z,28.60
2018-11-28T09:48:20.006Z,21.50
2018-11-28T09:49:19.985Z,24.80
2018-11-28T09:50:19.984Z,23.30
2018-11-28T09:51:19.961Z,25.80
2018-11-28T09:52:19.951Z,23.40
2018-11-28T09:53:20.339Z,22.40
2018-11-28T09:54:19.932Z,23.80
2018-11-28T09:55:19.921Z,23.00
2018-11-28T09:56:19.916Z,24.20
2018-11-28T09:57:19.901Z,26.60
2018-11-28T09:58:20.334Z,24.40
2018-11-28T09:59:20.073Z,26.60
2018-11-28T10:00:19.869Z,27.40
2018-11-28T10:01:19.858Z,28.00
2018-11-28T10:02:19.847Z,23.40
2018-11-28T10:03:20.329Z,21.80
2018-11-28T10:04:19.826Z,22.20
2018-11-28T10:05:19.818Z,19.30
2018-11-28T10:06:19.805Z,26.30
2018-11-28T10:07:19.793Z,25.90
2018-11-28T10:08:19.796Z,25.70
2018-11-28T10:09:19.771Z,27.40
2018-11-28T10:10:19.760Z,27.00
2018-11-28T10:11:19.751Z,24.90
2018-11-28T10:12:19.862Z,24.50
2018-11-28T10:13:19.744Z,21.50
2018-11-28T10:14:19.720Z,21.10
2018-11-28T10:15:19.710Z,23.20
2018-11-28T10:16:19.697Z,24.60
2018-11-28T10:17:19.685Z,26.00
2018-11-28T10:18:19.694Z,25.40
2018-11-28T10:19:19.670Z,25.70
2018-11-28T10:20:19.846Z,25.20
2018-11-28T10:21:19.645Z,23.80
2018-11-28T10:22:19.635Z,23.10
2018-11-28T10:23:19.828Z,27.40
2018-11-28T10:24:19.612Z,27.20
2018-11-28T10:25:19.613Z,23.30
2018-11-28T10:26:19.592Z,25.40
2018-11-28T10:27:19.585Z,28.70
2018-11-28T10:28:19.583Z,21.90
2018-11-28T10:29:19.559Z,22.90
2018-11-28T10:30:19.552Z,23.90
2018-11-28T10:31:19.539Z,27.10
2018-11-28T10:32:19.529Z,22.60
2018-11-28T10:33:19.559Z,25.50
2018-11-28T10:34:19.506Z,22.40
2018-11-28T10:35:19.497Z,22.80
2018-11-28T10:36:19.497Z,26.40
2018-11-28T10:37:19.476Z,26.00
2018-11-28T10:38:19.464Z,27.10
2018-11-28T10:39:19.455Z,24.10
2018-11-28T10:40:19.826Z,23.80
2018-11-28T10:41:19.433Z,25.30
2018-11-28T10:42:19.427Z,22.40
2018-11-28T10:43:19.410Z,21.70
2018-11-28T10:44:19.398Z,23.60
2018-11-28T10:45:19.829Z,22.30
2018-11-28T10:46:19.380Z,22.40
2018-11-28T10:47:19.366Z,21.40
2018-11-28T10:48:19.356Z,22.30
2018-11-28T10:49:19.345Z,24.70
2018-11-28T10:50:19.350Z,26.60
2018-11-28T10:51:19.327Z,25.30
2018-11-28T10:52:19.315Z,25.10
2018-11-28T10:53:19.305Z,22.00
2018-11-28T10:54:19.296Z,23.90
2018-11-28T10:55:19.289Z,23.20
2018-11-28T10:56:19.326Z,24.00
2018-11-28T10:57:19.269Z,21.40
2018-11-28T10:58:19.253Z,22.00
2018-11-28T10:59:19.244Z,23.80
2018-11-28T11:00:19.230Z,21.80
2018-11-28T11:01:19.232Z,22.50
2018-11-28T11:02:19.390Z,22.60
2018-11-28T11:03:19.200Z,23.10
2018-11-28T11:04:19.187Z,23.90
2018-11-28T11:05:19.176Z,20.20
2018-11-28T11:06:19.181Z,22.50
2018-11-28T11:07:19.154Z,21.00
2018-11-28T11:08:19.145Z,21.20
2018-11-28T11:09:19.134Z,22.30
2018-11-28T11:10:19.127Z,21.60
2018-11-28T11:11:19.330Z,21.20
2018-11-28T11:12:19.104Z,19.80
2018-11-28T11:13:19.093Z,23.10
2018-11-28T11:14:19.082Z,20.10
2018-11-28T11:15:19.072Z,23.20
2018-11-28T11:16:19.328Z,22.00
2018-11-28T11:17:19.050Z,18.60
2018-11-28T11:18:19.043Z,19.60
2018-11-28T11:19:19.032Z,20.50
2018-11-28T11:20:19.019Z,19.80
2018-11-28T11:21:19.323Z,19.80
2018-11-28T11:22:18.999Z,19.60
2018-11-28T11:23:18.989Z,21.30
2018-11-28T11:24:18.980Z,20.70
2018-11-28T11:25:18.967Z,18.10
2018-11-28T11:26:19.324Z,21.30
2018-11-28T11:27:18.946Z,19.20
2018-11-28T11:28:18.936Z,18.20
2018-11-28T11:29:18.929Z,20.90
2018-11-28T11:30:18.913Z,21.40
2018-11-28T11:31:19.324Z,16.90
2018-11-28T11:32:18.891Z,19.70
2018-11-28T11:33:18.884Z,20.20
2018-11-28T11:34:18.871Z,18.30
2018-11-28T11:35:18.863Z,20.20
2018-11-28T11:36:18.868Z,17.80
2018-11-28T11:37:18.839Z,21.60
2018-11-28T11:38:18.833Z,20.80
2018-11-28T11:39:18.818Z,19.10
2018-11-28T11:40:18.893Z,17.80
2018-11-28T11:41:18.818Z,22.60
2018-11-28T11:42:18.787Z,21.80
2018-11-28T11:43:18.778Z,22.20
2018-11-28T11:44:18.766Z,19.40
2018-11-28T11:45:18.834Z,20.50
2018-11-28T11:46:18.846Z,19.40
2018-11-28T11:47:18.743Z,23.10
2018-11-28T11:48:18.732Z,21.50
2018-11-28T11:49:18.727Z,19.90
2018-11-28T11:50:18.712Z,19.10
2018-11-28T11:51:18.824Z,22.50
2018-11-28T11:52:18.695Z,18.90
2018-11-28T11:53:18.675Z,19.10
2018-11-28T11:54:18.673Z,21.60
2018-11-28T11:55:18.670Z,18.40
2018-11-28T11:56:18.891Z,18.10
2018-11-28T11:57:18.634Z,17.70
2018-11-28T11:58:18.627Z,20.50
2018-11-28T11:59:18.613Z,18.90
2018-11-28T12:00:18.605Z,19.60
2018-11-28T12:01:18.852Z,20.90
2018-11-28T12:02:18.587Z,19.80
2018-11-28T12:03:18.644Z,18.20
2018-11-28T12:04:18.579Z,17.70
2018-11-28T12:05:18.626Z,19.30
2018-11-28T12:06:18.829Z,18.50
2018-11-28T12:07:18.547Z,21.90
2018-11-28T12:08:18.517Z,20.00
2018-11-28T12:09:18.511Z,17.00
2018-11-28T12:10:18.504Z,18.50
2018-11-28T12:11:18.506Z,17.20
2018-11-28T12:12:18.477Z,18.50
2018-11-28T12:13:18.478Z,18.60
2018-11-28T12:14:18.455Z,20.30
2018-11-28T12:15:18.444Z,20.60
2018-11-28T12:16:21.549Z,19.60
2018-11-28T12:17:18.423Z,17.90
2018-11-28T12:18:18.410Z,19.20
2018-11-28T12:19:18.402Z,17.10
2018-11-28T12:20:18.390Z,20.20
2018-11-28T12:21:18.829Z,17.10
2018-11-28T12:22:18.377Z,20.00
2018-11-28T12:23:18.358Z,19.20
2018-11-28T12:24:18.348Z,17.00
2018-11-28T12:25:18.380Z,18.10
2018-11-28T12:26:19.131Z,18.10
2018-11-28T12:27:18.314Z,18.50
2018-11-28T12:28:18.307Z,17.70
2018-11-28T12:29:18.292Z,19.40
2018-11-28T12:30:18.281Z,18.70
2018-11-28T12:31:18.323Z,19.50
2018-11-28T12:32:18.258Z,19.40
2018-11-28T12:33:18.249Z,18.20
2018-11-28T12:34:18.237Z,17.30
2018-11-28T12:35:18.225Z,18.40
2018-11-28T12:36:18.329Z,16.80
2018-11-28T12:37:18.251Z,16.10
2018-11-28T12:38:18.195Z,15.20
2018-11-28T12:39:18.179Z,16.60
2018-11-28T12:40:18.171Z,19.60
2018-11-28T12:41:18.159Z,16.00
2018-11-28T12:42:18.322Z,19.30
2018-11-28T12:43:18.138Z,19.70
2018-11-28T12:44:18.129Z,16.70
2018-11-28T12:45:18.115Z,17.80
2018-11-28T12:46:18.107Z,18.90
2018-11-28T12:47:18.631Z,17.30
2018-11-28T12:48:18.085Z,18.70
2018-11-28T12:49:18.073Z,18.50
2018-11-28T12:50:18.060Z,18.90
2018-11-28T12:51:18.051Z,16.80
2018-11-28T12:52:18.061Z,17.80
2018-11-28T12:53:18.032Z,17.60
2018-11-28T12:54:18.017Z,20.10
2018-11-28T12:55:18.007Z,17.40
2018-11-28T12:56:18.006Z,16.10
2018-11-28T12:57:18.329Z,20.00
2018-11-28T12:58:17.987Z,19.70
2018-11-28T12:59:17.979Z,18.90
2018-11-28T13:00:17.956Z,17.30
2018-11-28T13:01:17.945Z,19.70
2018-11-28T13:02:18.340Z,18.90
2018-11-28T13:03:17.924Z,18.10
2018-11-28T13:04:17.908Z,22.10
2018-11-28T13:05:17.908Z,19.10
2018-11-28T13:06:17.888Z,16.30
2018-11-28T13:07:18.327Z,18.00
2018-11-28T13:08:17.870Z,16.80
2018-11-28T13:09:17.856Z,18.90
2018-11-28T13:10:18.333Z,19.30
2018-11-28T13:11:17.847Z,18.50
2018-11-28T13:12:17.824Z,19.50
2018-11-28T13:13:18.168Z,16.90
2018-11-28T13:14:17.809Z,17.90
2018-11-28T13:15:17.788Z,18.10
2018-11-28T13:16:17.817Z,20.80
2018-11-28T13:17:17.783Z,17.40
2018-11-28T13:18:17.765Z,14.80
2018-11-28T13:19:17.744Z,16.40
2018-11-28T13:20:17.738Z,17.80
2018-11-28T13:21:17.749Z,19.10
2018-11-28T13:22:17.712Z,17.40
2018-11-28T13:23:17.713Z,16.40
2018-11-28T13:24:17.692Z,21.20
2018-11-28T13:25:17.681Z,18.30
2018-11-28T13:26:17.699Z,17.50
2018-11-28T13:27:17.657Z,16.60
2018-11-28T13:28:17.653Z,19.00
2018-11-28T13:29:17.869Z,18.70
2018-11-28T13:30:17.627Z,17.60
2018-11-28T13:31:17.827Z,19.70
2018-11-28T13:32:17.608Z,18.10
2018-11-28T13:33:17.627Z,20.60
2018-11-28T13:34:17.585Z,17.90
2018-11-28T13:35:17.572Z,18.50
2018-11-28T13:36:22.666Z,17.10
2018-11-28T13:37:18.550Z,14.80
2018-11-28T13:38:17.543Z,16.00
2018-11-28T13:39:17.546Z,16.10
2018-11-28T13:40:17.522Z,19.60
2018-11-28T13:41:17.820Z,16.20
2018-11-28T13:42:17.513Z,16.20
2018-11-28T13:43:17.490Z,17.70
2018-11-28T13:44:17.480Z,15.10
2018-11-28T13:45:17.478Z,19.40
2018-11-28T13:46:17.974Z,14.00
2018-11-28T13:47:17.450Z,20.00
2018-11-28T13:48:17.455Z,19.80
2018-11-28T13:49:17.542Z,15.20
2018-11-28T13:50:17.636Z,16.70
2018-11-28T13:51:17.825Z,19.60
2018-11-28T13:52:17.394Z,15.40
2018-11-28T13:53:17.382Z,18.20
2018-11-28T13:54:21.371Z,15.40
2018-11-28T13:57:18.348Z,16.90
2018-11-28T13:58:17.329Z,15.90
2018-11-28T13:59:17.317Z,16.90
2018-11-28T14:00:17.349Z,13.80
2018-11-28T14:01:17.314Z,17.50
2018-11-28T14:02:17.286Z,16.90
2018-11-28T14:03:17.279Z,17.40
2018-11-28T14:04:17.264Z,15.80
2018-11-28T14:05:17.254Z,16.50
2018-11-28T14:06:17.324Z,17.20
2018-11-28T14:07:17.235Z,15.70
2018-11-28T14:08:17.222Z,13.80
2018-11-28T14:09:17.215Z,17.10
2018-11-28T14:10:17.201Z,17.60
2018-11-28T14:11:17.320Z,16.30
2018-11-28T14:12:17.177Z,16.40
2018-11-28T14:13:17.211Z,20.20
2018-11-28T14:14:17.157Z,15.50
2018-11-28T14:15:17.151Z,17.10
2018-11-28T14:16:17.362Z,15.80
2018-11-28T14:17:17.125Z,16.30
2018-11-28T14:18:17.114Z,14.90
2018-11-28T14:19:17.101Z,13.70
2018-11-28T14:20:17.096Z,17.10
2018-11-28T14:21:17.317Z,15.10
2018-11-28T14:22:17.071Z,15.70
2018-11-28T14:23:17.061Z,15.90
2018-11-28T14:24:17.057Z,17.00
2018-11-28T14:25:17.042Z,16.10
2018-11-28T14:26:17.048Z,16.10
2018-11-28T14:27:17.033Z,18.60
2018-11-28T14:28:17.010Z,14.70
2018-11-28T14:29:16.998Z,15.80
2018-11-28T14:30:16.983Z,17.50
2018-11-28T14:31:17.069Z,17.90
2018-11-28T14:32:16.963Z,16.00
2018-11-28T14:33:16.951Z,17.40
2018-11-28T14:34:16.944Z,14.90
2018-11-28T14:35:16.932Z,19.10
2018-11-28T14:36:17.315Z,17.80
2018-11-28T14:37:16.920Z,18.30
2018-11-28T14:38:16.901Z,15.10
2018-11-28T14:39:16.892Z,16.60
2018-11-28T14:40:16.886Z,15.80
2018-11-28T14:41:17.328Z,13.70
2018-11-28T14:42:16.857Z,15.60
2018-11-28T14:43:16.864Z,16.80
2018-11-28T14:44:16.836Z,19.50
2018-11-28T14:45:16.826Z,16.40
2018-11-28T14:46:16.844Z,16.70
2018-11-28T14:47:17.318Z,18.10
2018-11-28T14:48:16.793Z,18.20
2018-11-28T14:49:16.791Z,13.90
2018-11-28T14:50:16.777Z,13.70
2018-11-28T14:51:16.762Z,17.50
2018-11-28T14:52:17.160Z,16.10
2018-11-28T14:53:16.742Z,15.10
2018-11-28T14:54:16.731Z,18.80
2018-11-28T14:55:16.729Z,17.60
2018-11-28T14:56:16.711Z,20.00
2018-11-28T14:57:16.818Z,16.50
2018-11-28T14:58:16.705Z,17.70
2018-11-28T14:59:16.679Z,19.00
2018-11-28T15:00:16.670Z,18.60
2018-11-28T15:01:16.663Z,19.40
2018-11-28T15:02:16.682Z,17.50
2018-11-28T15:03:16.637Z,15.60
2018-11-28T15:04:16.637Z,17.90
2018-11-28T15:05:16.617Z,14.80
2018-11-28T15:06:16.605Z,19.00
2018-11-28T15:07:16.617Z,17.80